PWSweather.com
Personal Weather Stations
Station Observations
KCTCOLEB1
Sandy Brook, Colebrook, CT 06021

Sandy BrookColebrook, CT 06021

Lat: 42.0018, Lon: -73.0825

Elevation: 935

Station Type: Davis Vantage Pro2 + Solar + UV

Latest ConditionsUpdated 9:50:01 AM EDT Sunday, Jun 16, 2019
Currently Today's Max Today's Min Today's Average
Temperature 62.7°F17.1°C 64.4°F18.0°C 60.6°F15.9°C 62.0°F16.7°C
Dew Point 61.5°F16.4°C 61.9°F16.6°C 56.6°F13.7°C 59.6°F15.3°C
Winds Calm Calm 2.3 mph -3.7 kmh - - 0.2 mph 0.3 kmh
Wind Gusts -- 3.5 mph5.6 kmh - -
Humidity 96% 97% 77% 92%
Pressure 29.84 in1010.5 mb 29.90 in1012.5 mb 29.84 in1010.5 mb -
Precipitation - 0.08 in2.0 mm - -
Hour Temp Dew Point Humidity Winds Wind Gusts Pressure Precip Precip Rate Daily Precip Total
09:50 AM 62.7°F17.1°C 61.5°F16.4°C 96% Calm Calm -- 29.84 in1010.5 mb - 0.00 in0.0 mm 0.08 in2.0 mm
09:40 AM 62.7°F17.1°C 61.5°F16.4°C 96% Calm Calm -- 29.84 in1010.5 mb - 0.00 in0.0 mm 0.08 in2.0 mm
09:30 AM 62.8°F17.1°C 61.9°F16.6°C 97% Calm Calm -- 29.84 in1010.5 mb - 0.00 in0.0 mm 0.08 in2.0 mm
09:20 AM 62.8°F17.1°C 61.9°F16.6°C 97% Calm Calm -- 29.84 in1010.5 mb - 0.00 in0.0 mm 0.08 in2.0 mm
09:10 AM 62.7°F17.1°C 61.8°F16.6°C 97% Calm Calm -- 29.84 in1010.5 mb - 0.00 in0.0 mm 0.08 in2.0 mm
09:00 AM 62.6°F17.0°C 61.7°F16.5°C 97% Calm Calm -- 29.85 in1010.8 mb - 0.00 in0.0 mm 0.08 in2.0 mm
08:50 AM 62.6°F17.0°C 61.7°F16.5°C 97% Calm Calm -- 29.85 in1010.8 mb - 0.00 in0.0 mm 0.08 in2.0 mm
08:40 AM 62.6°F17.0°C 61.7°F16.5°C 97% Calm Calm -- 29.85 in1010.8 mb - 0.00 in0.0 mm 0.08 in2.0 mm
08:30 AM 62.5°F16.9°C 61.6°F16.4°C 97% Calm Calm -- 29.86 in1011.2 mb - 0.00 in0.0 mm 0.08 in2.0 mm
08:20 AM 62.4°F16.9°C 61.5°F16.4°C 97% Calm Calm -- 29.85 in1010.8 mb - 0.00 in0.0 mm 0.08 in2.0 mm
08:10 AM 62.3°F16.8°C 61.4°F16.3°C 97% Calm Calm -- 29.85 in1010.8 mb - 0.00 in0.0 mm 0.08 in2.0 mm
08:00 AM 62.1°F16.7°C 61.3°F16.3°C 97% Calm Calm -- 29.86 in1011.2 mb - 0.00 in0.0 mm 0.08 in2.0 mm
07:50 AM 61.9°F16.6°C 61.0°F16.1°C 97% Calm Calm -- 29.85 in1010.8 mb - 0.00 in0.0 mm 0.08 in2.0 mm
07:40 AM 61.6°F16.4°C 60.7°F15.9°C 97% Calm Calm -- 29.86 in1011.2 mb - 0.00 in0.0 mm 0.08 in2.0 mm
07:30 AM 61.4°F16.3°C 60.5°F15.8°C 97% Calm Calm -- 29.86 in1011.2 mb - 0.00 in0.0 mm 0.08 in2.0 mm
07:20 AM 61.1°F16.2°C 60.2°F15.7°C 97% Calm Calm -- 29.86 in1011.2 mb - 0.00 in0.0 mm 0.08 in2.0 mm
07:10 AM 60.9°F16.1°C 59.8°F15.4°C 96% Calm Calm -- 29.85 in1010.8 mb - 0.00 in0.0 mm 0.08 in2.0 mm
07:00 AM 60.9°F16.1°C 59.8°F15.4°C 96% Calm Calm -- 29.86 in1011.2 mb - 0.00 in0.0 mm 0.08 in2.0 mm
06:50 AM 60.8°F16.0°C 59.7°F15.4°C 96% Calm Calm -- 29.86 in1011.2 mb - 0.00 in0.0 mm 0.08 in2.0 mm
06:40 AM 60.7°F15.9°C 59.6°F15.3°C 96% Calm Calm -- 29.86 in1011.2 mb - 0.00 in0.0 mm 0.08 in2.0 mm
06:30 AM 60.6°F15.9°C 59.5°F15.3°C 96% Calm Calm -- 29.86 in1011.2 mb - 0.00 in0.0 mm 0.08 in2.0 mm
06:20 AM 60.6°F15.9°C 59.5°F15.3°C 96% Calm Calm -- 29.87 in1011.5 mb - 0.00 in0.0 mm 0.08 in2.0 mm
06:10 AM 60.6°F15.9°C 59.5°F15.3°C 96% Calm Calm -- 29.87 in1011.5 mb - 0.00 in0.0 mm 0.08 in2.0 mm
06:00 AM 60.6°F15.9°C 59.5°F15.3°C 96% Calm Calm -- 29.87 in1011.5 mb - 0.00 in0.0 mm 0.08 in2.0 mm
05:50 AM 60.7°F15.9°C 59.6°F15.3°C 96% Calm Calm -- 29.87 in1011.5 mb - 0.01 in0.3 mm 0.08 in2.0 mm
05:40 AM 60.7°F15.9°C 59.6°F15.3°C 96% Calm Calm -- 29.88 in1011.9 mb - 0.00 in0.0 mm 0.07 in1.8 mm
05:30 AM 60.7°F15.9°C 59.6°F15.3°C 96% Calm Calm -- 29.88 in1011.9 mb - 0.00 in0.0 mm 0.07 in1.8 mm
05:20 AM 60.7°F15.9°C 59.6°F15.3°C 96% Calm Calm -- 29.88 in1011.9 mb - 0.00 in0.0 mm 0.07 in1.8 mm
05:10 AM 60.7°F15.9°C 59.6°F15.3°C 96% Calm Calm -- 29.88 in1011.9 mb - 0.01 in0.3 mm 0.07 in1.8 mm
05:00 AM 60.7°F15.9°C 59.3°F15.2°C 95% 1.2 mph ENE1.9 kmh ENE 2.3 mph3.7 kmh 29.88 in1011.9 mb - 0.01 in0.3 mm 0.07 in1.8 mm
04:50 AM 60.7°F15.9°C 59.3°F15.2°C 95% Calm Calm 1.2 mph1.9 kmh 29.88 in1011.9 mb - 0.00 in0.0 mm 0.06 in1.5 mm
04:40 AM 60.7°F15.9°C 59.3°F15.2°C 95% Calm Calm 1.2 mph1.9 kmh 29.88 in1011.9 mb - 0.00 in0.0 mm 0.06 in1.5 mm
04:30 AM 60.8°F16.0°C 59.4°F15.2°C 95% Calm Calm -- 29.88 in1011.9 mb - 0.00 in0.0 mm 0.06 in1.5 mm
04:20 AM 60.8°F16.0°C 59.4°F15.2°C 95% 1.2 mph E1.9 kmh E 2.3 mph3.7 kmh 29.88 in1011.9 mb - 0.01 in0.3 mm 0.06 in1.5 mm
04:10 AM 60.9°F16.1°C 59.4°F15.2°C 95% Calm Calm 2.3 mph3.7 kmh 29.89 in1012.2 mb - 0.00 in0.0 mm 0.05 in1.3 mm
04:00 AM 60.9°F16.1°C 59.5°F15.3°C 95% 1.2 mph NE1.9 kmh NE 2.3 mph3.7 kmh 29.88 in1011.9 mb - 0.00 in0.0 mm 0.05 in1.3 mm
03:50 AM 60.9°F16.1°C 59.5°F15.3°C 95% 1.2 mph NE1.9 kmh NE 2.3 mph3.7 kmh 29.88 in1011.9 mb - 0.00 in0.0 mm 0.05 in1.3 mm
03:40 AM 61.0°F16.1°C 59.6°F15.3°C 95% 1.2 mph NE1.9 kmh NE 2.3 mph3.7 kmh 29.88 in1011.9 mb - 0.00 in0.0 mm 0.05 in1.3 mm
03:30 AM 61.1°F16.2°C 59.7°F15.4°C 95% Calm Calm -- 29.88 in1011.9 mb - 0.00 in0.0 mm 0.05 in1.3 mm
03:20 AM 61.2°F16.2°C 59.5°F15.3°C 94% Calm Calm -- 29.88 in1011.9 mb - 0.00 in0.0 mm 0.05 in1.3 mm
03:10 AM 61.2°F16.2°C 59.5°F15.3°C 94% Calm Calm -- 29.88 in1011.9 mb - 0.00 in0.0 mm 0.05 in1.3 mm
03:00 AM 61.3°F16.3°C 59.6°F15.3°C 94% Calm Calm 1.2 mph1.9 kmh 29.88 in1011.9 mb - 0.00 in0.0 mm 0.05 in1.3 mm
02:50 AM 61.5°F16.4°C 59.5°F15.3°C 93% Calm Calm -- 29.88 in1011.9 mb - 0.00 in0.0 mm 0.05 in1.3 mm
02:40 AM 61.7°F16.5°C 59.7°F15.4°C 93% 1.2 mph E1.9 kmh E 3.5 mph5.6 kmh 29.88 in1011.9 mb - 0.01 in0.3 mm 0.05 in1.3 mm
02:30 AM 62.0°F16.7°C 59.7°F15.4°C 92% Calm Calm -- 29.89 in1012.2 mb - 0.00 in0.0 mm 0.04 in1.0 mm
02:20 AM 62.3°F16.8°C 59.6°F15.3°C 91% Calm Calm -- 29.89 in1012.2 mb - 0.02 in0.5 mm 0.04 in1.0 mm
02:10 AM 62.6°F17.0°C 59.6°F15.3°C 90% Calm Calm -- 29.89 in1012.2 mb - 0.01 in0.3 mm 0.02 in0.5 mm
02:00 AM 63.0°F17.2°C 59.1°F15.1°C 87% 1.2 mph NE1.9 kmh NE 1.2 mph1.9 kmh 29.89 in1012.2 mb - 0.01 in0.3 mm 0.01 in0.3 mm
01:50 AM 63.5°F17.5°C 58.6°F14.8°C 84% Calm Calm -- 29.90 in1012.5 mb - 0.00 in0.0 mm 0.00 in0.0 mm
01:40 AM 63.7°F17.6°C 58.4°F14.7°C 83% Calm Calm -- 29.89 in1012.2 mb - 0.00 in0.0 mm 0.00 in0.0 mm
01:30 AM 63.9°F17.7°C 58.0°F14.4°C 81% Calm Calm -- 29.88 in1011.9 mb - 0.00 in0.0 mm 0.00 in0.0 mm
01:20 AM 64.1°F17.8°C 58.1°F14.5°C 81% Calm Calm -- 29.88 in1011.9 mb - 0.00 in0.0 mm 0.00 in0.0 mm
01:10 AM 64.3°F17.9°C 58.0°F14.4°C 80% Calm Calm -- 29.87 in1011.5 mb - 0.00 in0.0 mm 0.00 in0.0 mm
01:00 AM 64.4°F18.0°C 57.7°F14.3°C 79% Calm Calm -- 29.87 in1011.5 mb - 0.00 in0.0 mm 0.00 in0.0 mm
12:50 AM 64.2°F17.9°C 56.8°F13.8°C 77% Calm Calm 1.2 mph1.9 kmh 29.88 in1011.9 mb - 0.00 in0.0 mm 0.00 in0.0 mm
12:40 AM 64.0°F17.8°C 57.4°F14.1°C 79% 2.3 mph ENE3.7 kmh ENE 2.3 mph3.7 kmh 29.88 in1011.9 mb - 0.00 in0.0 mm 0.00 in0.0 mm
12:30 AM 63.7°F17.6°C 56.8°F13.8°C 78% 1.2 mph NE1.9 kmh NE 1.2 mph1.9 kmh 29.88 in1011.9 mb - 0.00 in0.0 mm 0.00 in0.0 mm
12:20 AM 63.7°F17.6°C 56.7°F13.7°C 78% Calm Calm -- 29.88 in1011.9 mb - 0.00 in0.0 mm 0.00 in0.0 mm
12:10 AM 63.9°F17.7°C 56.9°F13.8°C 78% Calm Calm -- 29.88 in1011.9 mb - 0.00 in0.0 mm 0.00 in0.0 mm
12:00 AM 64.0°F17.8°C 56.6°F13.7°C 77% Calm Calm -- 29.88 in1011.9 mb - 0.00 in0.0 mm 0.00 in0.0 mm